Dspm 1 — DSPM1 — position and weather

sailwx.info

Track history (hours):
 
Tides and Currents Weather Stations Pressure Air Temp Water Temp Dewpoint Dewpoint Depression Visibility Wind Speed Wind Dir Waves Ship Positions

Dspm 1

Last reported at 2017-Sep-19 18:31 UTC. Time now 2017-Sep-19 18:42 UTC.
Position N 39°43' W 075°31'.

Length 10 m.

Type: Law enforcement. MMSI: 367551330.

Date/timePositionNaut miles runAvg speedWind from/ knotsBaromVisibWave heightAir tempDewpointWater temp
2017-Sep-19 18:31N 39°43' W 075°31'2 3.6
2017-Sep-19 18:01N 39°44' W 075°33'0 0.0
2017-Sep-19 17:31N 39°44' W 075°33'1 2.0
2017-Sep-19 17:01N 39°44' W 075°32'1 2.9
2017-Sep-19 16:30N 39°43' W 075°31'0 0.1
2017-Sep-19 16:00N 39°43' W 075°31'917.2
2017-Sep-19 15:30N 39°35' W 075°35'0 0.3
2017-Sep-19 15:00N 39°35' W 075°35'0 0.0
2017-Sep-19 14:30N 39°35' W 075°35'  
2017-Sep-13 19:17N 39°35' W 075°35'0 0.5
2017-Sep-13 19:01N 39°35' W 075°35'917.8
2017-Sep-13 18:31N 39°43' W 075°31'1 2.9
2017-Sep-13 18:01N 39°44' W 075°32'0 0.0
2017-Sep-13 17:31N 39°44' W 075°32'0 0.0
2017-Sep-13 17:01N 39°44' W 075°32'1 1.9
2017-Sep-13 16:30N 39°43' W 075°32'611.9
2017-Sep-13 16:00N 39°38' W 075°35'  
Track history (hours):
 
Tides and Currents Weather Stations Pressure Air Temp Water Temp Dewpoint Dewpoint Depression Visibility Wind Speed Wind Dir Waves Ship Positions

Dspm 1

Last reported at 2017-Sep-19 18:31 UTC. Time now 2017-Sep-19 18:42 UTC.
Position N 39°43' W 075°31'.

Length 10 m.

Type: Law enforcement. MMSI: 367551330.

Date/timePositionNaut miles runAvg speedWind from/ knotsBaromVisibWave heightAir tempDewpointWater temp
2017-Sep-19 18:31N 39°43' W 075°31'2 3.6
2017-Sep-19 18:01N 39°44' W 075°33'0 0.0
2017-Sep-19 17:31N 39°44' W 075°33'1 2.0
2017-Sep-19 17:01N 39°44' W 075°32'1 2.9
2017-Sep-19 16:30N 39°43' W 075°31'0 0.1
2017-Sep-19 16:00N 39°43' W 075°31'917.2
2017-Sep-19 15:30N 39°35' W 075°35'0 0.3
2017-Sep-19 15:00N 39°35' W 075°35'0 0.0
2017-Sep-19 14:30N 39°35' W 075°35'  
2017-Sep-13 19:17N 39°35' W 075°35'0 0.5
2017-Sep-13 19:01N 39°35' W 075°35'917.8
2017-Sep-13 18:31N 39°43' W 075°31'1 2.9
2017-Sep-13 18:01N 39°44' W 075°32'0 0.0
2017-Sep-13 17:31N 39°44' W 075°32'0 0.0
2017-Sep-13 17:01N 39°44' W 075°32'1 1.9
2017-Sep-13 16:30N 39°43' W 075°32'611.9
2017-Sep-13 16:00N 39°38' W 075°35'  

Dump ship's entire track history